Time;durP1;ratioP1;P1;durP2;ratioP2;P2;SDS_P1;SDS_P2;PMS_P1;PMS_P2;Temp;Humidity;BMP_temperature;BMP_pressure;BME280_temperature;BME280_humidity;BME280_pressure;Samples;Min_cycle;Max_cycle;Signal;HPM_P1;HPM_P2
2023/01/14 09:05:06;;;;;;;1.43;0.57;;;8.80;99.90;;;;;;3248716;23;20328;-70
2023/01/14 09:18:30;;;;;;;2.53;0.40;;;8.90;99.90;;;;;;4933884;29;20616;-71
2023/01/14 09:20:58;;;;;;;3.90;0.70;;;8.90;99.90;;;;;;4936358;29;20584;-71
2023/01/14 09:23:25;;;;;;;6.00;0.70;;;8.90;99.90;;;;;;4927402;29;20235;-72
2023/01/14 09:25:52;;;;;;;2.97;0.37;;;8.90;99.90;;;;;;4926609;29;20220;-71
2023/01/14 09:28:19;;;;;;;1.77;0.70;;;8.90;99.90;;;;;;4917350;29;20617;-70
2023/01/14 09:30:46;;;;;;;1.80;0.50;;;9.00;99.90;;;;;;4918215;29;20211;-73
2023/01/14 09:33:13;;;;;;;2.27;0.43;;;9.00;99.90;;;;;;4917375;29;20704;-71
2023/01/14 09:35:40;;;;;;;1.93;0.37;;;9.00;99.90;;;;;;4930709;29;20706;-72
2023/01/14 09:38:08;;;;;;;2.77;0.30;;;9.00;99.90;;;;;;4936123;29;20209;-71
2023/01/14 09:40:38;;;;;;;0.70;0.30;;;9.00;99.90;;;;;;4936407;29;20292;-71
2023/01/14 09:43:06;;;;;;;2.67;0.40;;;9.00;99.90;;;;;;4935874;29;20577;-71
2023/01/14 09:45:35;;;;;;;2.83;0.40;;;9.10;99.90;;;;;;4936676;29;20317;-73
2023/01/14 09:48:07;;;;;;;0.23;0.20;;;9.10;99.90;;;;;;4937575;29;20217;-73
2023/01/14 09:50:47;;;;;;;1.57;0.33;;;9.10;99.90;;;;;;4937034;29;20208;-71
2023/01/14 09:53:32;;;;;;;0.77;0.30;;;9.10;99.90;;;;;;4937440;29;20232;-70
2023/01/14 09:56:07;;;;;;;0.77;0.27;;;9.10;99.90;;;;;;4937582;29;20238;-70
2023/01/14 09:58:38;;;;;;;0.40;0.10;;;9.10;99.90;;;;;;4933289;29;20287;-73
2023/01/14 10:01:16;;;;;;;2.00;0.63;;;9.10;99.90;;;;;;4937156;29;20261;-74
2023/01/14 10:03:48;;;;;;;5.17;0.50;;;9.10;99.90;;;;;;4936932;29;20225;-71
2023/01/14 10:06:17;;;;;;;2.30;0.40;;;9.20;99.90;;;;;;4937032;29;20219;-71
2023/01/14 10:08:50;;;;;;;2.27;0.40;;;9.20;99.90;;;;;;4954046;29;20211;-71
2023/01/14 10:11:18;;;;;;;4.47;0.40;;;9.20;99.90;;;;;;4956170;29;20235;-70
2023/01/14 10:13:53;;;;;;;1.23;0.30;;;9.20;99.90;;;;;;4956197;28;20216;-71
2023/01/14 10:16:23;;;;;;;2.90;0.50;;;9.20;99.90;;;;;;4944574;29;20228;-73
2023/01/14 10:18:55;;;;;;;1.50;0.57;;;9.20;99.90;;;;;;4954852;29;20212;-71
2023/01/14 10:21:28;;;;;;;3.30;0.40;;;9.30;99.90;;;;;;4956042;28;20295;-73
2023/01/14 10:23:56;;;;;;;0.60;0.30;;;9.30;99.90;;;;;;4922078;29;20692;-70
2023/01/14 10:26:32;;;;;;;1.33;0.20;;;9.30;99.90;;;;;;4916514;29;20209;-72
2023/01/14 10:29:03;;;;;;;1.40;0.50;;;9.30;99.90;;;;;;4935011;29;20209;-72
2023/01/14 10:31:33;;;;;;;0.60;0.23;;;9.30;99.90;;;;;;4934500;29;20205;-70
2023/01/14 10:34:00;;;;;;;1.07;0.40;;;9.30;99.90;;;;;;4934942;29;20216;-70
2023/01/14 10:36:30;;;;;;;2.40;0.50;;;9.30;99.90;;;;;;4934356;29;20327;-70
2023/01/14 10:38:59;;;;;;;2.57;0.53;;;9.30;99.90;;;;;;4938214;29;20213;-70
2023/01/14 10:44:10;;;;;;;0.87;0.30;;;9.40;99.90;;;;;;4933696;29;20208;-69
2023/01/14 10:46:37;;;;;;;1.47;0.20;;;9.40;99.90;;;;;;4934592;29;20235;-70
2023/01/14 10:49:12;;;;;;;0.80;0.20;;;9.40;99.90;;;;;;4935124;29;20201;-69
2023/01/14 10:51:47;;;;;;;0.80;0.40;;;9.40;99.90;;;;;;4934541;29;20243;-69
2023/01/14 10:54:17;;;;;;;1.27;0.30;;;9.40;99.90;;;;;;4935123;29;20243;-69
2023/01/14 10:56:48;;;;;;;0.30;0.20;;;9.50;99.90;;;;;;4934725;29;20703;-70
2023/01/14 10:59:37;;;;;;;3.83;0.43;;;9.50;99.90;;;;;;4934467;29;20572;-70
2023/01/14 11:02:04;;;;;;;0.97;0.37;;;9.50;99.90;;;;;;4934891;29;20253;-70
2023/01/14 11:04:33;;;;;;;1.77;0.10;;;9.60;99.90;;;;;;4934988;29;20208;-70
2023/01/14 11:07:09;;;;;;;1.03;0.57;;;9.60;99.90;;;;;;4934148;29;20308;-70
2023/01/14 11:09:37;;;;;;;1.50;0.20;;;9.60;99.90;;;;;;4934691;29;20220;-69
2023/01/14 11:12:05;;;;;;;1.13;0.30;;;9.60;99.90;;;;;;4934949;29;20232;-69
2023/01/14 11:14:37;;;;;;;0.87;0.30;;;9.60;99.90;;;;;;4934537;29;20204;-69
2023/01/14 11:17:21;;;;;;;0.77;0.40;;;9.60;99.90;;;;;;4934663;29;20236;-69
2023/01/14 11:19:48;;;;;;;4.17;0.30;;;9.70;99.90;;;;;;4934076;29;20213;-69
2023/01/14 11:22:15;;;;;;;2.50;0.30;;;9.60;99.90;;;;;;4933381;29;20707;-69
2023/01/14 11:24:45;;;;;;;2.67;0.10;;;9.70;99.90;;;;;;4934580;29;20296;-70
2023/01/14 11:27:15;;;;;;;0.23;0.10;;;9.70;99.90;;;;;;4934640;29;20212;-69
2023/01/14 11:29:45;;;;;;;0.37;0.27;;;9.60;99.90;;;;;;4934282;29;20208;-69
2023/01/14 11:32:14;;;;;;;0.73;0.20;;;9.70;99.90;;;;;;4934048;29;20579;-69
2023/01/14 11:34:47;;;;;;;0.93;0.30;;;9.70;99.90;;;;;;4934216;29;20200;-70
2023/01/14 11:37:18;;;;;;;0.40;0.20;;;9.70;99.90;;;;;;4933982;29;20595;-70
2023/01/14 11:39:53;;;;;;;3.60;0.30;;;9.80;99.90;;;;;;4935760;29;20382;-69
2023/01/14 11:42:35;;;;;;;0.30;0.20;;;9.80;99.90;;;;;;4935132;29;20234;-70
2023/01/14 11:45:04;;;;;;;0.30;0.17;;;9.80;99.90;;;;;;4934017;29;20208;-70
2023/01/14 11:47:31;;;;;;;0.30;0.10;;;9.80;99.90;;;;;;4934596;29;20565;-71
2023/01/14 11:50:15;;;;;;;0.40;0.27;;;9.80;99.90;;;;;;4934503;29;20208;-69
2023/01/14 11:52:41;;;;;;;1.77;0.27;;;9.90;99.90;;;;;;4933324;29;20235;-69
2023/01/14 11:55:17;;;;;;;0.90;0.30;;;9.90;99.90;;;;;;4934370;29;20671;-69
2023/01/14 11:57:44;;;;;;;2.10;0.10;;;9.80;99.90;;;;;;4934122;29;20232;-69
2023/01/14 12:00:12;;;;;;;0.40;0.40;;;9.80;99.90;;;;;;4933569;29;20228;-69
2023/01/14 12:02:44;;;;;;;0.60;0.40;;;9.90;99.90;;;;;;4934235;29;20232;-69
2023/01/14 12:05:15;;;;;;;0.97;0.20;;;10.00;99.90;;;;;;4934216;29;20222;-69
2023/01/14 12:07:45;;;;;;;1.77;0.50;;;10.00;99.90;;;;;;4934206;29;20213;-69
2023/01/14 12:10:20;;;;;;;0.20;0.10;;;10.00;99.90;;;;;;4933862;29;20209;-69
2023/01/14 12:18:32;;;;;;;2.80;0.40;;;10.10;99.90;;;;;;4934302;29;20340;-70
2023/01/14 12:21:01;;;;;;;0.93;0.40;;;10.20;99.90;;;;;;4933585;29;20212;-70
2023/01/14 12:23:30;;;;;;;0.63;0.20;;;10.20;99.90;;;;;;4933781;29;20311;-70
2023/01/14 12:26:02;;;;;;;0.40;0.30;;;10.30;99.90;;;;;;4934164;29;20223;-69
2023/01/14 12:28:33;;;;;;;1.67;0.40;;;10.30;99.90;;;;;;4933435;29;20219;-71
2023/01/14 12:31:02;;;;;;;1.50;0.40;;;10.30;99.90;;;;;;4933817;29;20205;-70
2023/01/14 12:33:38;;;;;;;0.60;0.30;;;10.30;99.90;;;;;;4933769;29;20225;-69
2023/01/14 12:36:14;;;;;;;0.60;0.40;;;10.30;99.90;;;;;;4933641;29;20228;-69
2023/01/14 12:47:11;;;;;;;1.00;0.40;;;10.60;99.90;;;;;;4933986;29;20336;-70
2023/01/14 12:49:39;;;;;;;1.60;0.30;;;10.60;99.90;;;;;;4935608;29;20541;-69
2023/01/14 12:52:07;;;;;;;1.60;0.40;;;10.70;99.90;;;;;;4936578;29;20695;-69
2023/01/14 12:54:36;;;;;;;1.77;0.40;;;10.70;99.90;;;;;;4937581;29;20244;-68
2023/01/14 12:57:07;;;;;;;0.80;0.27;;;10.70;99.90;;;;;;4937283;29;20236;-69
2023/01/14 12:59:36;;;;;;;3.00;0.60;;;10.70;99.90;;;;;;4936928;29;20209;-69
2023/01/14 13:02:07;;;;;;;3.60;0.40;;;10.70;99.90;;;;;;4937029;29;20225;-69
2023/01/14 13:04:39;;;;;;;2.30;0.40;;;10.70;99.90;;;;;;4937384;29;20231;-69
2023/01/14 13:07:07;;;;;;;1.23;0.47;;;10.70;99.90;;;;;;4937208;29;20217;-68
2023/01/14 13:09:45;;;;;;;1.33;0.40;;;10.60;99.90;;;;;;4937119;29;20215;-68
2023/01/14 13:12:25;;;;;;;1.97;0.50;;;10.60;99.90;;;;;;4936129;29;20532;-69
2023/01/14 13:14:57;;;;;;;2.10;0.50;;;10.60;99.90;;;;;;4936569;29;20209;-69
2023/01/14 13:17:32;;;;;;;0.70;0.50;;;10.70;99.90;;;;;;4936565;29;20715;-69
2023/01/14 13:19:59;;;;;;;0.80;0.63;;;10.60;99.90;;;;;;4936663;29;20241;-69
2023/01/14 13:22:46;;;;;;;1.63;0.57;;;10.60;99.90;;;;;;4936620;29;20235;-68
2023/01/14 13:25:41;;;;;;;0.83;0.33;;;10.70;99.90;;;;;;4936525;29;20208;-68
2023/01/14 13:28:54;;;;;;;0.93;0.60;;;10.70;99.90;;;;;;4935904;29;20243;-68
2023/01/14 13:31:36;;;;;;;4.17;0.73;;;10.70;99.90;;;;;;4936579;29;20304;-70
2023/01/14 13:34:39;;;;;;;1.30;0.60;;;10.70;99.90;;;;;;4936183;29;21101;-69
2023/01/14 13:37:41;;;;;;;1.67;0.40;;;10.70;99.90;;;;;;4936249;29;20242;-69
2023/01/14 13:40:19;;;;;;;0.60;0.50;;;10.70;99.90;;;;;;4921678;29;20218;-69
2023/01/14 13:42:55;;;;;;;0.80;0.50;;;10.70;99.90;;;;;;4936086;29;20225;-69
2023/01/14 13:45:26;;;;;;;1.20;0.50;;;10.70;99.90;;;;;;4936584;29;20215;-69
2023/01/14 13:47:54;;;;;;;1.27;0.30;;;10.70;99.90;;;;;;4936196;29;20236;-69
2023/01/14 13:50:24;;;;;;;0.80;0.50;;;10.80;99.90;;;;;;4935473;29;20216;-70
2023/01/14 13:52:55;;;;;;;1.00;0.50;;;10.80;99.90;;;;;;4935873;29;20231;-70
2023/01/14 13:55:24;;;;;;;0.50;0.40;;;10.80;99.90;;;;;;4935741;29;20256;-69
2023/01/14 13:57:54;;;;;;;4.43;0.80;;;10.80;99.90;;;;;;4935575;29;20242;-69
2023/01/14 14:00:44;;;;;;;0.67;0.47;;;10.80;99.90;;;;;;4935352;29;20213;-69
2023/01/14 14:03:41;;;;;;;0.93;0.40;;;10.80;99.90;;;;;;4935683;29;20307;-69
2023/01/14 14:06:43;;;;;;;0.77;0.57;;;10.80;99.90;;;;;;4876196;29;20226;-69
2023/01/14 14:09:19;;;;;;;1.43;0.40;;;10.80;99.90;;;;;;4935878;29;20220;-69
2023/01/14 14:12:06;;;;;;;0.90;0.43;;;10.80;99.90;;;;;;4935418;29;20250;-67
2023/01/14 14:14:36;;;;;;;0.67;0.40;;;10.80;99.90;;;;;;4923844;29;20209;-68
2023/01/14 14:17:13;;;;;;;1.53;0.40;;;10.90;99.90;;;;;;4935935;29;20243;-68
2023/01/14 14:19:49;;;;;;;0.83;0.50;;;10.90;99.90;;;;;;4935636;29;20208;-68
2023/01/14 14:22:21;;;;;;;2.20;0.40;;;10.90;99.90;;;;;;4932372;29;21058;-68
2023/01/14 14:24:50;;;;;;;0.37;0.30;;;10.80;99.90;;;;;;4934870;29;20228;-69
2023/01/14 14:27:21;;;;;;;1.00;0.50;;;10.90;99.90;;;;;;4935034;29;20213;-68
2023/01/14 14:29:49;;;;;;;6.23;1.77;;;10.90;99.90;;;;;;4935165;29;20204;-69
2023/01/14 14:32:23;;;;;;;3.33;0.50;;;10.90;99.90;;;;;;4940038;29;20231;-69
2023/01/14 14:35:08;;;;;;;0.83;0.40;;;10.90;99.90;;;;;;4954181;29;20207;-69
2023/01/14 14:37:37;;;;;;;0.70;0.40;;;10.90;99.90;;;;;;4954732;28;20246;-69
2023/01/14 14:40:06;;;;;;;0.50;0.30;;;10.90;99.90;;;;;;4954420;29;20212;-69
2023/01/14 14:42:35;;;;;;;0.63;0.30;;;10.90;99.90;;;;;;4942350;29;20224;-70
2023/01/14 14:45:02;;;;;;;0.93;0.40;;;10.90;99.90;;;;;;4954652;29;20216;-69
2023/01/14 14:47:32;;;;;;;0.73;0.40;;;10.90;99.90;;;;;;4954437;29;20218;-69
2023/01/14 14:49:59;;;;;;;0.60;0.40;;;10.90;99.90;;;;;;4954095;28;20204;-69
2023/01/14 14:52:27;;;;;;;0.50;0.40;;;10.90;99.90;;;;;;4948087;28;20231;-69
2023/01/14 14:55:05;;;;;;;0.77;0.20;;;10.90;99.90;;;;;;4935890;29;20216;-70
2023/01/14 14:57:32;;;;;;;0.40;0.30;;;10.90;99.90;;;;;;4934828;29;20243;-69
2023/01/14 15:00:03;;;;;;;1.23;0.40;;;10.90;99.90;;;;;;4935206;29;20228;-70
2023/01/14 15:02:36;;;;;;;2.17;0.40;;;10.90;99.90;;;;;;4967996;23;20951;-72
2023/01/14 15:05:06;;;;;;;0.50;0.30;;;10.90;99.90;;;;;;4953797;29;20204;-73
2023/01/14 15:07:37;;;;;;;0.73;0.30;;;10.90;99.90;;;;;;4954353;29;20311;-73
2023/01/14 15:10:05;;;;;;;0.90;0.33;;;10.90;99.90;;;;;;4953752;29;20215;-72
2023/01/14 15:12:33;;;;;;;0.80;0.30;;;10.90;99.90;;;;;;4945682;28;20697;-73
2023/01/14 15:15:01;;;;;;;0.70;0.33;;;10.90;99.90;;;;;;4934714;29;20850;-72
2023/01/14 15:17:29;;;;;;;0.60;0.30;;;10.90;99.90;;;;;;4934697;29;20232;-72
2023/01/14 15:19:58;;;;;;;0.40;0.33;;;10.90;99.90;;;;;;4925267;29;20221;-73
2023/01/14 15:22:32;;;;;;;0.50;0.40;;;10.90;99.90;;;;;;4927610;29;20224;-72
2023/01/14 15:25:01;;;;;;;0.40;0.30;;;10.90;99.90;;;;;;4953988;29;20291;-73
2023/01/14 15:27:29;;;;;;;1.03;0.40;;;10.90;99.90;;;;;;4953428;29;20216;-71
2023/01/14 15:29:58;;;;;;;0.67;0.30;;;10.90;99.90;;;;;;4954003;29;20254;-71
2023/01/14 15:32:27;;;;;;;1.37;0.43;;;10.90;99.90;;;;;;4953309;28;20258;-71
2023/01/14 15:35:07;;;;;;;0.93;0.50;;;11.00;99.90;;;;;;4953326;29;20302;-73
2023/01/14 15:37:35;;;;;;;1.40;0.30;;;10.90;99.90;;;;;;4953137;29;20733;-73
2023/01/14 15:40:03;;;;;;;0.60;0.20;;;10.90;99.90;;;;;;4952975;29;20267;-73
2023/01/14 15:42:30;;;;;;;1.37;0.30;;;10.90;99.90;;;;;;4952967;29;20233;-73
2023/01/14 15:45:00;;;;;;;1.53;0.40;;;10.90;99.90;;;;;;4953946;29;20215;-72
2023/01/14 15:47:27;;;;;;;0.50;0.37;;;10.90;99.90;;;;;;4934672;29;20336;-73
2023/01/14 15:49:55;;;;;;;1.33;0.40;;;10.90;99.90;;;;;;4934310;29;20208;-74
2023/01/14 15:52:34;;;;;;;0.30;0.20;;;10.90;99.90;;;;;;4939332;29;20714;-75
2023/01/14 15:55:10;;;;;;;0.93;0.37;;;11.00;99.90;;;;;;4952600;29;20216;-73
2023/01/14 15:57:41;;;;;;;0.47;0.40;;;11.00;99.90;;;;;;4953703;29;20237;-75
2023/01/14 16:00:19;;;;;;;0.63;0.33;;;11.00;99.90;;;;;;4953470;29;20208;-73
2023/01/14 16:02:46;;;;;;;0.30;0.30;;;11.00;99.90;;;;;;4952732;28;20237;-73
2023/01/14 16:05:22;;;;;;;0.57;0.30;;;11.00;99.90;;;;;;4953287;28;20204;-74
2023/01/14 16:07:52;;;;;;;1.00;0.30;;;11.00;99.90;;;;;;4953231;29;20208;-73
2023/01/14 16:10:20;;;;;;;0.80;0.30;;;11.00;99.90;;;;;;4952723;29;20295;-73
2023/01/14 16:12:48;;;;;;;0.97;0.40;;;11.00;99.90;;;;;;4952678;29;20224;-75
2023/01/14 16:15:19;;;;;;;1.03;0.40;;;11.00;99.90;;;;;;4935029;29;20692;-72
2023/01/14 16:17:46;;;;;;;0.30;0.30;;;11.10;99.90;;;;;;4935446;29;20235;-73
2023/01/14 16:20:14;;;;;;;1.40;0.23;;;11.00;99.90;;;;;;4935483;29;20209;-73
2023/01/14 16:22:41;;;;;;;1.20;0.40;;;11.10;99.90;;;;;;4935435;29;20239;-73
2023/01/14 16:25:10;;;;;;;0.83;0.40;;;11.10;99.90;;;;;;4939083;29;20209;-72
2023/01/14 16:27:37;;;;;;;0.50;0.23;;;11.10;99.90;;;;;;4939077;29;20224;-73
2023/01/14 16:30:06;;;;;;;0.50;0.37;;;11.20;99.90;;;;;;4939021;29;20219;-73
2023/01/14 16:32:33;;;;;;;0.83;0.40;;;11.20;99.90;;;;;;4938890;29;20270;-72
2023/01/14 16:34:59;;;;;;;0.73;0.50;;;11.20;99.90;;;;;;4939138;29;20221;-72
2023/01/14 16:37:26;;;;;;;1.70;0.40;;;11.20;99.90;;;;;;4938909;29;20235;-72
2023/01/14 16:39:53;;;;;;;1.70;0.40;;;11.20;99.90;;;;;;4939096;29;20228;-73
2023/01/14 16:42:21;;;;;;;0.40;0.30;;;11.20;99.90;;;;;;4938804;29;20256;-72
2023/01/14 16:44:48;;;;;;;0.93;0.63;;;11.30;99.90;;;;;;4938688;29;20219;-73
2023/01/14 16:47:15;;;;;;;0.50;0.40;;;11.20;99.90;;;;;;4939038;29;20664;-73
2023/01/14 16:49:42;;;;;;;1.40;0.83;;;11.20;99.90;;;;;;4938841;29;20580;-74
2023/01/14 16:52:09;;;;;;;1.03;0.43;;;11.30;99.90;;;;;;4938643;29;20247;-74
2023/01/14 16:54:38;;;;;;;1.00;0.50;;;11.30;99.90;;;;;;4938749;29;20230;-73
2023/01/14 16:57:04;;;;;;;1.00;0.57;;;11.30;99.90;;;;;;4938679;29;20217;-75
2023/01/14 16:59:33;;;;;;;1.20;0.63;;;11.40;99.90;;;;;;4938639;29;20215;-73
2023/01/14 17:01:59;;;;;;;0.70;0.50;;;11.40;99.90;;;;;;4938247;29;20240;-74
2023/01/14 17:04:26;;;;;;;3.10;0.70;;;11.40;99.90;;;;;;4938340;29;20691;-74
2023/01/14 17:06:54;;;;;;;0.60;0.53;;;11.50;99.90;;;;;;4938351;29;20213;-75
2023/01/14 17:09:21;;;;;;;1.10;0.50;;;11.50;99.90;;;;;;4938328;29;20217;-75
2023/01/14 17:14:33;;;;;;;2.43;1.00;;;11.50;99.90;;;;;;4938187;29;20223;-73
2023/01/14 17:17:00;;;;;;;1.60;0.83;;;11.50;99.90;;;;;;4938290;29;20216;-73
2023/01/14 17:19:27;;;;;;;2.13;1.00;;;11.60;99.90;;;;;;4938291;29;20240;-73
2023/01/14 17:21:53;;;;;;;1.70;0.80;;;11.60;99.90;;;;;;4938223;29;20599;-74
2023/01/14 17:24:20;;;;;;;0.67;0.43;;;11.60;99.90;;;;;;4938268;29;20212;-74
2023/01/14 17:26:47;;;;;;;0.90;0.50;;;11.60;99.90;;;;;;4937934;29;20208;-74
2023/01/14 17:29:14;;;;;;;1.30;0.83;;;11.60;99.90;;;;;;4938073;29;20212;-75
2023/01/14 17:31:42;;;;;;;1.13;0.67;;;11.60;99.90;;;;;;4938091;29;20239;-74
2023/01/14 17:34:09;;;;;;;1.27;0.73;;;11.70;99.90;;;;;;4938160;29;20209;-73
2023/01/14 17:36:35;;;;;;;1.40;0.70;;;11.70;99.90;;;;;;4937453;29;20212;-74
2023/01/14 17:39:02;;;;;;;1.53;0.83;;;11.70;99.90;;;;;;4937380;29;20461;-74
2023/01/14 17:44:13;;;;;;;4.10;1.03;;;11.70;99.90;;;;;;4937719;29;20208;-73
2023/01/14 17:46:41;;;;;;;1.57;0.70;;;11.80;99.90;;;;;;4937734;29;20208;-73
2023/01/14 17:49:12;;;;;;;2.70;0.90;;;11.80;99.90;;;;;;4937503;29;20240;-73
2023/01/14 17:51:38;;;;;;;0.77;0.67;;;11.80;99.90;;;;;;4937438;29;20209;-74
2023/01/14 17:54:06;;;;;;;1.33;0.60;;;11.80;99.90;;;;;;4937606;29;20224;-75
2023/01/14 17:56:32;;;;;;;0.90;0.63;;;11.80;99.90;;;;;;4937896;29;20299;-73
2023/01/14 17:58:59;;;;;;;1.00;0.60;;;11.90;99.90;;;;;;4937597;29;20239;-73
2023/01/14 18:01:26;;;;;;;1.97;0.80;;;11.90;99.90;;;;;;4937273;29;20208;-73
2023/01/14 18:03:55;;;;;;;1.00;0.57;;;11.80;99.90;;;;;;4937193;29;20216;-73
2023/01/14 18:06:24;;;;;;;1.03;0.70;;;11.80;99.90;;;;;;4937335;29;20205;-73
2023/01/14 18:08:51;;;;;;;1.40;0.80;;;11.90;99.90;;;;;;4937645;29;20209;-73
2023/01/14 18:11:19;;;;;;;1.30;0.57;;;11.80;99.90;;;;;;4937367;29;20679;-74
2023/01/14 18:13:47;;;;;;;1.40;0.80;;;11.80;99.90;;;;;;4936874;29;20220;-74
2023/01/14 18:16:14;;;;;;;1.40;0.80;;;11.80;99.90;;;;;;4936935;29;20211;-73
2023/01/14 18:18:40;;;;;;;0.80;0.50;;;11.80;99.90;;;;;;4936673;29;20611;-73
2023/01/14 18:21:09;;;;;;;0.93;0.50;;;11.80;99.90;;;;;;4937060;29;20219;-73
2023/01/14 18:23:39;;;;;;;0.97;0.60;;;11.80;99.90;;;;;;4936731;29;20231;-73
2023/01/14 18:26:09;;;;;;;1.87;0.83;;;11.80;99.90;;;;;;4937194;29;20220;-73
2023/01/14 18:28:37;;;;;;;1.20;0.70;;;11.80;99.90;;;;;;4937042;29;20297;-73
2023/01/14 18:31:04;;;;;;;0.80;0.57;;;11.80;99.90;;;;;;4936988;29;20208;-74
2023/01/14 18:33:32;;;;;;;1.37;0.80;;;11.80;99.90;;;;;;4936912;29;20239;-74
2023/01/14 18:35:58;;;;;;;0.93;0.53;;;11.70;99.90;;;;;;4936958;29;20220;-74
2023/01/14 18:38:25;;;;;;;0.70;0.60;;;11.80;99.90;;;;;;4937174;29;20323;-74
2023/01/14 18:40:54;;;;;;;0.93;0.70;;;11.70;99.90;;;;;;4937026;29;20212;-73
2023/01/14 18:43:20;;;;;;;0.70;0.60;;;11.70;99.90;;;;;;4936343;29;20715;-74
2023/01/14 18:45:47;;;;;;;1.30;0.70;;;11.60;99.90;;;;;;4936269;29;20212;-74
2023/01/14 18:48:14;;;;;;;1.00;0.60;;;11.60;99.90;;;;;;4935792;29;20223;-73
2023/01/14 18:50:41;;;;;;;1.17;0.77;;;11.60;99.90;;;;;;4936749;29;20214;-74
2023/01/14 18:53:08;;;;;;;1.17;0.70;;;11.60;99.90;;;;;;4936502;29;20229;-73
2023/01/14 18:55:36;;;;;;;2.10;0.93;;;11.50;99.90;;;;;;4936644;29;20208;-74
2023/01/14 18:58:04;;;;;;;3.60;0.73;;;11.40;99.90;;;;;;4936361;29;20229;-74
2023/01/14 19:00:31;;;;;;;1.30;0.60;;;11.40;99.90;;;;;;4935947;29;20216;-73
2023/01/14 19:02:58;;;;;;;1.50;0.80;;;11.40;99.90;;;;;;4936071;29;20327;-74
2023/01/14 19:05:25;;;;;;;2.40;0.60;;;11.30;99.90;;;;;;4936178;29;20217;-75
2023/01/14 19:07:51;;;;;;;2.77;0.70;;;11.20;99.90;;;;;;4936176;29;20216;-73
2023/01/14 19:10:18;;;;;;;2.33;0.50;;;11.10;99.90;;;;;;4936432;29;20209;-75
2023/01/14 19:12:45;;;;;;;3.20;0.70;;;11.10;99.90;;;;;;4936214;29;20239;-75
2023/01/14 19:15:13;;;;;;;1.90;0.70;;;11.00;99.90;;;;;;4936127;29;20208;-72
2023/01/14 19:17:40;;;;;;;2.70;0.73;;;11.00;99.90;;;;;;4935946;29;20687;-74
2023/01/14 19:20:08;;;;;;;1.07;0.77;;;10.90;99.90;;;;;;4936159;29;20247;-73
2023/01/14 19:22:38;;;;;;;6.50;0.90;;;10.90;99.90;;;;;;4936133;29;20229;-73
2023/01/14 19:25:06;;;;;;;3.67;0.83;;;10.90;99.90;;;;;;4936117;29;20213;-74
2023/01/14 19:27:33;;;;;;;2.00;1.03;;;10.90;99.90;;;;;;4935997;29;20213;-75
2023/01/14 19:30:00;;;;;;;2.73;0.80;;;10.90;99.90;;;;;;4936132;29;20271;-73
2023/01/14 19:32:28;;;;;;;5.83;1.10;;;10.90;99.90;;;;;;4935888;29;20232;-74
2023/01/14 19:34:55;;;;;;;3.97;1.10;;;10.90;99.90;;;;;;4936002;29;20219;-74
2023/01/14 19:37:22;;;;;;;3.67;0.80;;;10.90;99.90;;;;;;4935898;29;20211;-74
2023/01/14 19:39:48;;;;;;;3.33;0.93;;;10.80;99.90;;;;;;4935738;29;20244;-74
2023/01/14 19:42:15;;;;;;;2.83;0.77;;;10.80;99.90;;;;;;4935579;29;20233;-74
2023/01/14 19:44:42;;;;;;;2.67;0.70;;;10.80;99.90;;;;;;4935806;29;20212;-75
2023/01/14 19:47:09;;;;;;;1.60;0.70;;;10.80;99.90;;;;;;4935992;29;20215;-74
2023/01/14 19:49:37;;;;;;;3.47;0.90;;;10.80;99.90;;;;;;4935781;29;20683;-75
2023/01/14 19:52:04;;;;;;;1.30;0.70;;;10.80;99.90;;;;;;4935367;29;20582;-74
2023/01/14 19:54:31;;;;;;;3.30;0.83;;;10.80;99.90;;;;;;4935427;29;20205;-74
2023/01/14 19:56:58;;;;;;;3.97;0.70;;;10.70;99.90;;;;;;4935834;29;20212;-73
2023/01/14 19:59:25;;;;;;;3.10;0.57;;;10.60;99.90;;;;;;4938952;29;20237;-73
2023/01/14 20:01:52;;;;;;;4.10;0.70;;;10.60;99.90;;;;;;4939329;29;20228;-74
2023/01/14 20:04:19;;;;;;;3.17;0.73;;;10.60;99.90;;;;;;4939344;29;20243;-73
2023/01/14 20:06:47;;;;;;;7.40;1.00;;;10.60;99.90;;;;;;4939291;29;20215;-74
2023/01/14 20:09:15;;;;;;;2.47;0.70;;;10.60;99.90;;;;;;4939260;29;20219;-74
2023/01/14 20:11:43;;;;;;;6.03;0.80;;;10.60;99.90;;;;;;4939792;29;20235;-74
2023/01/14 20:14:11;;;;;;;5.20;0.60;;;10.60;99.90;;;;;;4939600;29;20213;-75
2023/01/14 20:16:38;;;;;;;0.97;0.50;;;10.60;99.90;;;;;;4939209;29;20209;-74
2023/01/14 20:19:04;;;;;;;5.70;0.80;;;10.60;99.90;;;;;;4939411;29;20237;-74
2023/01/14 20:21:31;;;;;;;3.80;0.60;;;10.60;99.90;;;;;;4939045;29;20241;-74
2023/01/14 20:23:59;;;;;;;4.40;1.20;;;10.60;99.90;;;;;;4939193;29;20292;-73
2023/01/14 20:26:29;;;;;;;2.23;0.90;;;10.50;99.90;;;;;;4939362;29;20230;-74
2023/01/14 20:28:56;;;;;;;4.37;0.80;;;10.50;99.90;;;;;;4939343;29;20211;-73
2023/01/14 20:31:26;;;;;;;6.63;0.90;;;10.60;99.90;;;;;;4939019;29;20213;-74
2023/01/14 20:33:54;;;;;;;1.30;0.57;;;10.60;99.90;;;;;;4939018;29;20664;-74
2023/01/14 20:36:21;;;;;;;2.47;0.70;;;10.50;99.90;;;;;;4939136;29;20209;-74
2023/01/14 20:38:48;;;;;;;6.57;1.00;;;10.50;99.90;;;;;;4938872;29;20663;-75
2023/01/14 20:41:16;;;;;;;2.73;0.77;;;10.50;99.90;;;;;;4938883;29;20675;-75
2023/01/14 20:43:43;;;;;;;6.73;0.87;;;10.40;99.90;;;;;;4938598;29;20225;-75
2023/01/14 20:46:16;;;;;;;4.60;1.07;;;10.40;99.90;;;;;;4938675;29;20205;-75
2023/01/14 20:48:43;;;;;;;8.23;1.00;;;10.40;99.90;;;;;;4938424;29;20209;-75
2023/01/14 20:51:12;;;;;;;3.83;0.63;;;10.40;99.90;;;;;;4938381;29;20212;-75
2023/01/14 20:53:39;;;;;;;2.37;0.60;;;10.50;99.90;;;;;;4938389;29;20236;-75
2023/01/14 20:56:07;;;;;;;3.67;0.60;;;10.40;99.90;;;;;;4938818;29;20278;-75
2023/01/14 21:01:22;;;;;;;5.03;0.70;;;10.40;99.90;;;;;;4938925;29;20564;-75
2023/01/14 21:03:49;;;;;;;2.37;0.50;;;10.30;99.90;;;;;;4938475;29;20223;-76
2023/01/14 21:06:18;;;;;;;5.13;0.70;;;10.30;99.90;;;;;;4938887;29;20217;-75
2023/01/14 21:08:46;;;;;;;2.77;1.33;;;10.30;99.90;;;;;;4938566;29;20239;-75
2023/01/14 21:11:16;;;;;;;3.97;0.60;;;10.20;99.90;;;;;;4937324;29;20213;-75
2023/01/14 21:24:45;;;;;;;6.03;0.90;;;10.20;99.90;;;;;;4938214;29;20247;-75
2023/01/14 21:27:12;;;;;;;1.90;0.77;;;10.20;99.90;;;;;;4938342;29;20211;-76
2023/01/14 21:29:40;;;;;;;3.17;0.60;;;10.10;99.90;;;;;;4938223;29;20231;-75
2023/01/14 21:32:07;;;;;;;6.57;1.40;;;10.10;99.90;;;;;;4937909;29;20235;-75
2023/01/14 21:34:35;;;;;;;3.27;0.90;;;10.10;99.90;;;;;;4937961;29;20205;-75
2023/01/14 21:37:03;;;;;;;4.87;0.50;;;10.10;99.90;;;;;;4938123;29;20212;-75
2023/01/14 21:39:29;;;;;;;0.70;0.47;;;10.10;99.90;;;;;;4938156;29;20243;-76
2023/01/14 21:44:42;;;;;;;2.40;0.40;;;9.90;99.90;;;;;;4937732;29;20208;-74
2023/01/14 21:47:08;;;;;;;5.53;0.87;;;9.90;99.90;;;;;;4937541;29;20230;-75
2023/01/14 21:49:36;;;;;;;1.70;0.40;;;9.90;99.90;;;;;;4937905;29;20300;-75
2023/01/14 21:52:03;;;;;;;6.37;0.60;;;9.90;99.90;;;;;;4937490;29;20285;-74
2023/01/14 21:54:30;;;;;;;5.30;0.50;;;9.90;99.90;;;;;;4937829;29;20213;-75
2023/01/14 21:56:57;;;;;;;0.90;0.40;;;9.90;99.90;;;;;;4937580;29;20212;-76
2023/01/14 21:59:24;;;;;;;4.93;0.77;;;10.00;99.90;;;;;;4937550;29;20237;-75
2023/01/14 22:01:52;;;;;;;5.03;0.70;;;10.00;99.90;;;;;;4937220;29;20235;-75
2023/01/14 22:04:19;;;;;;;2.53;0.30;;;9.90;99.90;;;;;;4937539;29;20213;-74
2023/01/14 22:06:45;;;;;;;1.43;0.33;;;9.90;99.90;;;;;;4937477;29;20672;-76
2023/01/14 22:09:13;;;;;;;0.50;0.27;;;9.80;99.90;;;;;;4937537;29;20300;-76
2023/01/14 22:11:40;;;;;;;1.63;0.40;;;9.70;99.90;;;;;;4937400;29;20667;-76
2023/01/14 22:14:07;;;;;;;1.87;0.40;;;9.70;99.90;;;;;;4937238;29;20242;-76
2023/01/14 22:16:34;;;;;;;3.63;1.10;;;9.70;99.90;;;;;;4937085;29;20612;-76
2023/01/14 22:19:02;;;;;;;1.10;0.30;;;9.60;99.90;;;;;;4937276;29;20251;-76
2023/01/14 22:21:29;;;;;;;2.33;0.57;;;9.60;99.90;;;;;;4936821;29;20216;-76
2023/01/14 22:23:56;;;;;;;2.47;0.30;;;9.50;99.90;;;;;;4937300;29;20212;-75
2023/01/14 22:26:23;;;;;;;1.53;0.20;;;9.30;99.90;;;;;;4937185;29;20208;-76
2023/01/14 22:28:50;;;;;;;2.43;0.40;;;9.20;99.90;;;;;;4936510;29;20208;-75
2023/01/14 22:31:17;;;;;;;0.80;0.50;;;9.30;99.90;;;;;;4937118;29;20208;-75
2023/01/14 22:33:44;;;;;;;0.93;0.40;;;9.10;99.90;;;;;;4936892;29;20236;-76
2023/01/14 22:36:12;;;;;;;1.33;0.30;;;9.00;99.90;;;;;;4936727;29;20219;-75
2023/01/14 22:38:39;;;;;;;2.87;0.70;;;8.90;99.90;;;;;;4936919;29;20213;-76
2023/01/14 22:41:07;;;;;;;2.50;0.20;;;8.70;99.90;;;;;;4936884;29;20243;-76
2023/01/14 22:43:34;;;;;;;3.40;0.40;;;8.60;99.90;;;;;;4936697;29;20229;-76
2023/01/14 22:46:05;;;;;;;3.57;0.30;;;8.50;99.90;;;;;;4937056;29;20213;-75
2023/01/14 22:48:33;;;;;;;0.90;0.47;;;8.50;99.90;;;;;;4936767;29;20204;-75
2023/01/14 22:50:59;;;;;;;3.60;0.40;;;8.40;99.90;;;;;;4936707;29;20263;-76
2023/01/14 22:53:28;;;;;;;0.60;0.40;;;8.30;99.90;;;;;;4936528;29;20236;-76
2023/01/14 22:55:59;;;;;;;0.93;0.20;;;8.30;99.90;;;;;;4936486;29;20224;-76
2023/01/14 22:58:26;;;;;;;2.20;0.33;;;8.30;99.90;;;;;;4936659;29;20209;-76